createdAt,value
2019-03-23T00:01:15.597Z,25.10
2019-03-23T00:03:42.312Z,25.10
2019-03-23T00:06:09.129Z,25.10
2019-03-23T00:08:35.840Z,25.00
2019-03-23T00:11:02.579Z,25.00
2019-03-23T00:13:29.378Z,24.90
2019-03-23T00:15:56.105Z,24.90
2019-03-23T00:18:22.790Z,24.90
2019-03-23T00:20:49.571Z,24.80
2019-03-23T00:23:16.272Z,24.80
2019-03-23T00:25:42.983Z,24.70
2019-03-23T00:28:09.740Z,24.70
2019-03-23T00:30:36.441Z,24.70
2019-03-23T00:33:03.070Z,24.60
2019-03-23T00:35:29.855Z,24.60
2019-03-23T00:37:56.600Z,24.60
2019-03-23T00:40:23.332Z,24.60
2019-03-23T00:42:50.093Z,24.50
2019-03-23T00:45:16.757Z,24.50
2019-03-23T00:47:43.457Z,24.50
2019-03-23T00:50:10.256Z,24.40
2019-03-23T00:52:36.986Z,24.40
2019-03-23T00:55:03.718Z,24.40
2019-03-23T00:57:30.513Z,24.30
2019-03-23T00:59:57.216Z,24.30
2019-03-23T01:02:24.155Z,24.30
2019-03-23T01:04:51.158Z,24.20
2019-03-23T01:07:17.877Z,24.20
2019-03-23T01:09:44.599Z,24.20
2019-03-23T01:12:11.351Z,24.10
2019-03-23T01:14:38.071Z,24.10
2019-03-23T01:17:04.800Z,24.00
2019-03-23T01:19:31.588Z,24.00
2019-03-23T01:21:58.295Z,24.00
2019-03-23T01:24:25.016Z,24.00
2019-03-23T01:26:51.803Z,23.90
2019-03-23T01:29:18.513Z,23.90
2019-03-23T01:31:45.209Z,23.80
2019-03-23T01:34:12.370Z,23.80
2019-03-23T01:36:39.098Z,23.80
2019-03-23T01:39:05.802Z,23.90
2019-03-23T01:41:32.483Z,23.90
2019-03-23T01:43:59.107Z,23.90
2019-03-23T01:46:25.841Z,23.90
2019-03-23T01:48:52.623Z,24.00
2019-03-23T01:51:19.350Z,24.00
2019-03-23T01:53:46.089Z,24.00
2019-03-23T01:56:12.860Z,24.10
2019-03-23T01:58:39.598Z,24.10
2019-03-23T02:01:06.310Z,24.20
2019-03-23T02:03:33.083Z,24.20
2019-03-23T02:05:59.827Z,24.30
2019-03-23T02:08:26.563Z,24.40
2019-03-23T02:10:53.300Z,24.40
2019-03-23T02:13:19.928Z,24.40
2019-03-23T02:15:46.654Z,24.40
2019-03-23T02:18:13.443Z,24.40
2019-03-23T02:20:40.170Z,24.50
2019-03-23T02:23:06.865Z,24.50
2019-03-23T02:25:33.928Z,24.50
2019-03-23T02:28:00.660Z,24.50
2019-03-23T02:30:27.359Z,24.60
2019-03-23T02:32:54.070Z,24.60
2019-03-23T02:35:20.825Z,24.60
2019-03-23T02:37:47.531Z,24.60
2019-03-23T02:40:14.330Z,24.60
2019-03-23T02:42:41.042Z,24.60
2019-03-23T02:45:07.773Z,24.60
2019-03-23T02:47:34.620Z,24.60
2019-03-23T02:50:01.329Z,24.60
2019-03-23T02:52:28.030Z,24.60
2019-03-23T02:54:54.829Z,24.60
2019-03-23T02:57:21.591Z,24.60
2019-03-23T02:59:48.277Z,24.60
2019-03-23T03:02:15.036Z,24.50
2019-03-23T03:04:41.744Z,24.40
2019-03-23T03:07:08.476Z,24.40
2019-03-23T03:09:35.412Z,24.40
2019-03-23T03:12:02.134Z,24.30
2019-03-23T03:14:28.857Z,24.20
2019-03-23T03:16:55.632Z,24.20
2019-03-23T03:19:22.328Z,24.20
2019-03-23T03:21:49.053Z,24.20
2019-03-23T03:24:15.880Z,24.30
2019-03-23T03:26:42.609Z,24.30
2019-03-23T03:29:09.332Z,24.30
2019-03-23T03:31:36.094Z,24.20
2019-03-23T03:34:02.827Z,24.10
2019-03-23T03:36:30.196Z,23.90
2019-03-23T03:38:57.048Z,23.80
2019-03-23T03:41:23.788Z,23.70
2019-03-23T03:43:50.513Z,23.40
2019-03-23T03:46:17.302Z,23.50
2019-03-23T03:48:44.001Z,23.60
2019-03-23T03:51:10.689Z,23.80
2019-03-23T03:53:37.469Z,23.80
2019-03-23T03:56:04.186Z,23.90
2019-03-23T03:58:30.893Z,23.50
2019-03-23T04:00:57.749Z,23.40
2019-03-23T04:03:24.449Z,23.40
2019-03-23T04:05:51.212Z,23.20
2019-03-23T04:08:17.966Z,23.40
2019-03-23T04:10:44.666Z,23.40
2019-03-23T04:13:11.380Z,23.20
2019-03-23T04:15:38.173Z,23.30
2019-03-23T04:18:04.870Z,23.30
2019-03-23T04:20:31.599Z,23.20
2019-03-23T04:22:58.406Z,23.00
2019-03-23T04:25:25.137Z,22.90
2019-03-23T04:27:51.841Z,23.00
2019-03-23T04:30:18.622Z,23.00
2019-03-23T04:32:45.326Z,23.10
2019-03-23T04:35:12.059Z,23.20
2019-03-23T04:37:38.852Z,23.30
2019-03-23T04:40:05.563Z,23.40
2019-03-23T04:42:32.261Z,23.50
2019-03-23T04:44:59.041Z,23.50
2019-03-23T04:47:25.791Z,23.70
2019-03-23T04:49:52.484Z,23.70
2019-03-23T04:52:19.267Z,23.60
2019-03-23T04:54:46.005Z,23.50
2019-03-23T04:57:12.867Z,23.50
2019-03-23T04:59:39.698Z,23.60
2019-03-23T05:02:06.543Z,23.60
2019-03-23T05:04:33.231Z,23.70
2019-03-23T05:07:00.113Z,23.80
2019-03-23T05:09:26.843Z,23.90
2019-03-23T05:11:53.587Z,24.00
2019-03-23T05:14:20.432Z,24.10
2019-03-23T05:16:47.478Z,24.00
2019-03-23T05:19:14.213Z,24.20
2019-03-23T05:21:41.056Z,24.20
2019-03-23T05:24:07.857Z,24.20
2019-03-23T05:26:34.638Z,24.30
2019-03-23T05:29:01.495Z,24.30
2019-03-23T05:31:28.214Z,24.00
2019-03-23T05:33:54.963Z,24.10
2019-03-23T05:36:21.808Z,24.00
2019-03-23T05:38:48.537Z,23.90
2019-03-23T05:41:15.389Z,23.80
2019-03-23T05:43:42.228Z,23.80
2019-03-23T05:46:08.972Z,23.90
2019-03-23T05:48:35.697Z,23.70
2019-03-23T05:51:02.484Z,23.80
2019-03-23T05:53:29.499Z,23.80
2019-03-23T05:55:56.228Z,23.70
2019-03-23T05:58:23.075Z,23.90
2019-03-23T06:00:49.802Z,24.00
2019-03-23T06:03:16.548Z,24.10
2019-03-23T06:05:43.397Z,24.20
2019-03-23T06:08:10.137Z,24.30
2019-03-23T06:10:36.975Z,24.30
2019-03-23T06:13:03.871Z,24.40
2019-03-23T06:15:30.773Z,24.40
2019-03-23T06:17:57.467Z,24.40
2019-03-23T06:20:24.194Z,24.50
2019-03-23T06:22:50.929Z,24.60
2019-03-23T06:25:17.664Z,24.50
2019-03-23T06:27:44.445Z,24.60
2019-03-23T06:30:11.134Z,24.60
2019-03-23T06:32:37.787Z,24.40
2019-03-23T06:35:04.571Z,24.60
2019-03-23T06:37:31.289Z,24.60
2019-03-23T06:39:58.027Z,24.30
2019-03-23T06:42:24.833Z,24.40
2019-03-23T06:44:51.538Z,24.10
2019-03-23T06:47:18.245Z,24.10
2019-03-23T06:49:45.035Z,24.20
2019-03-23T06:52:11.775Z,24.30
2019-03-23T06:54:38.474Z,24.50
2019-03-23T06:57:05.240Z,24.70
2019-03-23T06:59:31.858Z,24.80
2019-03-23T07:01:58.555Z,25.00
2019-03-23T07:04:26.755Z,25.10
2019-03-23T07:06:53.663Z,25.00
2019-03-23T07:09:20.883Z,25.00
2019-03-23T07:11:47.684Z,24.80
2019-03-23T07:14:14.376Z,24.60
2019-03-23T07:16:41.087Z,24.70
2019-03-23T07:19:08.122Z,24.80
2019-03-23T07:21:36.878Z,24.80
2019-03-23T07:24:04.656Z,24.90
2019-03-23T07:26:31.602Z,25.10
2019-03-23T07:28:58.367Z,25.00
2019-03-23T07:31:25.850Z,25.20
2019-03-23T07:33:52.721Z,25.40
2019-03-23T07:36:19.504Z,25.20
2019-03-23T07:38:46.339Z,25.50
2019-03-23T07:41:13.190Z,25.70
2019-03-23T07:43:40.039Z,25.90
2019-03-23T07:46:06.889Z,26.10
2019-03-23T07:48:33.723Z,26.20
2019-03-23T07:51:00.450Z,26.30
2019-03-23T07:53:27.199Z,26.50
2019-03-23T07:55:54.788Z,26.70
2019-03-23T07:58:21.447Z,26.90
2019-03-23T08:00:48.367Z,27.00
2019-03-23T08:03:15.089Z,27.20
2019-03-23T08:05:41.913Z,27.20
2019-03-23T08:08:08.656Z,27.30
2019-03-23T08:10:35.938Z,27.50
2019-03-23T08:13:02.950Z,27.70
2019-03-23T08:15:29.807Z,27.90
2019-03-23T08:17:56.634Z,28.00
2019-03-23T08:20:23.482Z,28.10
2019-03-23T08:22:50.310Z,28.00
2019-03-23T08:25:17.623Z,27.80
2019-03-23T08:27:44.414Z,27.60
2019-03-23T08:30:11.256Z,27.60
2019-03-23T08:32:38.132Z,27.70
2019-03-23T08:35:04.837Z,27.90
2019-03-23T08:37:31.663Z,28.10
2019-03-23T08:39:58.516Z,28.70
2019-03-23T08:42:25.357Z,29.10
2019-03-23T08:44:52.202Z,29.80
2019-03-23T08:47:19.051Z,30.30
2019-03-23T08:49:45.903Z,31.00
2019-03-23T08:52:12.738Z,31.80
2019-03-23T08:54:40.000Z,32.50
2019-03-23T08:57:06.714Z,33.30
2019-03-23T08:59:33.451Z,33.80
2019-03-23T09:02:00.250Z,34.30
2019-03-23T09:04:27.032Z,34.80
2019-03-23T09:06:53.769Z,35.40
2019-03-23T09:09:20.620Z,35.70
2019-03-23T09:11:47.347Z,36.20
2019-03-23T09:14:14.092Z,36.70
2019-03-23T09:16:40.937Z,37.00
2019-03-23T09:19:07.792Z,37.40
2019-03-23T09:21:34.505Z,37.70
2019-03-23T09:24:01.352Z,37.90
2019-03-23T09:26:28.087Z,38.20
2019-03-23T09:28:54.834Z,38.50
2019-03-23T09:31:21.576Z,38.90
2019-03-23T09:33:48.285Z,39.00
2019-03-23T09:36:15.049Z,39.30
2019-03-23T09:38:41.903Z,39.60
2019-03-23T09:41:08.738Z,39.80
2019-03-23T09:43:35.879Z,40.10
2019-03-23T09:46:02.851Z,40.30
2019-03-23T09:48:29.601Z,40.60
2019-03-23T09:50:56.327Z,40.40
2019-03-23T09:53:23.138Z,40.60
2019-03-23T09:55:49.882Z,40.80
2019-03-23T09:58:16.628Z,40.80
2019-03-23T10:00:43.414Z,41.10
2019-03-23T10:03:10.159Z,41.10
2019-03-23T10:05:36.907Z,41.30
2019-03-23T10:08:03.691Z,41.50
2019-03-23T10:10:30.364Z,41.60
2019-03-23T10:12:57.058Z,41.90
2019-03-23T10:15:23.753Z,42.00
2019-03-23T10:17:50.459Z,42.20
2019-03-23T10:20:17.091Z,42.40
2019-03-23T10:22:43.767Z,42.50
2019-03-23T10:25:10.476Z,42.60
2019-03-23T10:27:37.133Z,42.80
2019-03-23T10:30:03.920Z,43.10
2019-03-23T10:32:30.657Z,43.40
2019-03-23T10:34:57.344Z,43.80
2019-03-23T10:37:26.047Z,44.30
2019-03-23T10:39:52.480Z,44.70
2019-03-23T10:42:19.216Z,45.20
2019-03-23T10:44:45.959Z,45.60
2019-03-23T10:47:12.707Z,46.00
2019-03-23T10:49:39.364Z,46.50
2019-03-23T10:52:06.229Z,46.90
2019-03-23T10:54:33.171Z,47.00
2019-03-23T10:57:00.050Z,47.00
2019-03-23T10:59:28.044Z,47.30
2019-03-23T11:01:54.771Z,47.40
2019-03-23T11:04:21.490Z,47.40
2019-03-23T11:06:48.300Z,47.50
2019-03-23T11:09:15.024Z,47.70
2019-03-23T11:11:41.765Z,48.00
2019-03-23T11:14:08.566Z,48.20
2019-03-23T11:16:35.282Z,48.60
2019-03-23T11:19:02.002Z,48.80
2019-03-23T11:21:28.774Z,48.90
2019-03-23T11:23:55.503Z,48.70
2019-03-23T11:26:22.230Z,48.20
2019-03-23T11:28:49.026Z,47.80
2019-03-23T11:31:15.781Z,47.30
2019-03-23T11:33:42.465Z,47.00
2019-03-23T11:36:09.535Z,46.80
2019-03-23T11:38:36.269Z,46.70
2019-03-23T11:41:03.007Z,46.50
2019-03-23T11:43:29.790Z,46.50
2019-03-23T11:45:56.524Z,46.40
2019-03-23T11:48:23.373Z,46.30
2019-03-23T11:50:50.216Z,46.20
2019-03-23T11:53:16.958Z,46.10
2019-03-23T11:55:43.685Z,45.90
2019-03-23T11:58:10.396Z,45.70
2019-03-23T12:00:37.177Z,45.80
2019-03-23T12:03:04.078Z,45.80
2019-03-23T12:05:30.886Z,46.10
2019-03-23T12:07:57.583Z,46.50
2019-03-23T12:10:24.237Z,46.80
2019-03-23T12:12:51.042Z,47.00
2019-03-23T12:15:17.760Z,47.10
2019-03-23T12:17:44.482Z,47.20
2019-03-23T12:20:11.266Z,47.20
2019-03-23T12:22:37.995Z,47.30
2019-03-23T12:25:04.753Z,47.30
2019-03-23T12:27:31.512Z,47.10
2019-03-23T12:30:06.765Z,47.10
2019-03-23T12:32:26.603Z,47.20
2019-03-23T12:34:53.288Z,47.30
2019-03-23T12:37:20.018Z,47.30
2019-03-23T12:39:46.721Z,47.30
2019-03-23T12:42:13.486Z,47.40
2019-03-23T12:44:40.209Z,47.30
2019-03-23T12:47:06.918Z,47.40
2019-03-23T12:49:34.047Z,47.60
2019-03-23T12:52:00.855Z,47.90
2019-03-23T12:54:27.555Z,48.20
2019-03-23T12:56:54.349Z,48.60
2019-03-23T12:59:23.333Z,49.00
2019-03-23T13:01:51.941Z,49.30
2019-03-23T13:04:18.984Z,49.50
2019-03-23T13:06:46.010Z,49.70
2019-03-23T13:09:14.283Z,49.90
2019-03-23T13:11:41.329Z,50.00
2019-03-23T13:14:08.053Z,50.00
2019-03-23T13:16:36.319Z,50.10
2019-03-23T13:19:04.817Z,50.20
2019-03-23T13:21:31.722Z,50.30
2019-03-23T13:23:59.863Z,50.30
2019-03-23T13:26:26.652Z,50.30
2019-03-23T13:28:53.394Z,50.40
2019-03-23T13:31:20.125Z,50.50
2019-03-23T13:33:46.930Z,50.60
2019-03-23T13:36:14.320Z,50.70
2019-03-23T13:38:42.539Z,50.70
2019-03-23T13:41:09.507Z,50.70
2019-03-23T13:43:37.057Z,50.70
2019-03-23T13:46:05.180Z,50.50
2019-03-23T13:48:33.615Z,50.30
2019-03-23T13:51:01.194Z,50.00
2019-03-23T13:53:29.236Z,49.80
2019-03-23T13:55:57.974Z,49.60
2019-03-23T13:58:24.933Z,49.20
2019-03-23T14:00:51.668Z,48.90
2019-03-23T14:03:18.470Z,48.50
2019-03-23T14:05:45.773Z,48.20
2019-03-23T14:08:12.645Z,47.90
2019-03-23T14:10:39.508Z,47.50
2019-03-23T14:13:06.579Z,47.10
2019-03-23T14:15:33.604Z,46.80
2019-03-23T14:18:00.504Z,46.60
2019-03-23T14:20:27.480Z,46.40
2019-03-23T14:23:02.308Z,46.20
2019-03-23T14:25:23.021Z,46.00
2019-03-23T14:27:49.735Z,45.70
2019-03-23T14:30:16.414Z,45.50
2019-03-23T14:32:43.192Z,45.30
2019-03-23T14:35:10.028Z,45.20
2019-03-23T14:37:36.954Z,45.10
2019-03-23T14:40:03.716Z,45.00
2019-03-23T14:42:30.460Z,44.90
2019-03-23T14:44:57.169Z,44.80
2019-03-23T14:47:23.973Z,44.60
2019-03-23T14:49:50.661Z,44.50
2019-03-23T14:52:17.388Z,44.30
2019-03-23T14:54:44.186Z,44.20
2019-03-23T14:57:10.925Z,44.00
2019-03-23T14:59:37.674Z,43.70
2019-03-23T15:02:04.460Z,43.50
2019-03-23T15:04:31.167Z,43.20
2019-03-23T15:06:57.925Z,42.80
2019-03-23T15:09:25.157Z,42.60
2019-03-23T15:11:52.034Z,42.30
2019-03-23T15:14:18.732Z,42.20
2019-03-23T15:16:45.698Z,42.00
2019-03-23T15:19:12.531Z,41.90
2019-03-23T15:21:39.245Z,41.80
2019-03-23T15:24:06.759Z,41.70
2019-03-23T15:26:34.693Z,41.40
2019-03-23T15:29:01.466Z,40.90
2019-03-23T15:31:28.234Z,40.60
2019-03-23T15:33:54.984Z,40.30
2019-03-23T15:36:21.728Z,40.10
2019-03-23T15:38:48.661Z,39.80
2019-03-23T15:41:15.412Z,39.40
2019-03-23T15:43:42.141Z,39.10
2019-03-23T15:46:08.961Z,38.60
2019-03-23T15:48:35.669Z,38.30
2019-03-23T15:51:02.410Z,38.00
2019-03-23T15:53:29.235Z,37.70
2019-03-23T15:55:55.975Z,37.40
2019-03-23T15:58:22.727Z,37.10
2019-03-23T16:00:50.198Z,36.80
2019-03-23T16:03:16.933Z,36.60
2019-03-23T16:05:43.761Z,36.40
2019-03-23T16:08:10.616Z,36.10
2019-03-23T16:10:37.521Z,35.90
2019-03-23T16:13:04.290Z,35.80
2019-03-23T16:15:31.068Z,35.60
2019-03-23T16:17:57.804Z,35.40
2019-03-23T16:20:24.514Z,35.20
2019-03-23T16:22:51.282Z,34.90
2019-03-23T16:25:17.932Z,34.70
2019-03-23T16:27:44.689Z,34.50
2019-03-23T16:30:11.464Z,34.40
2019-03-23T16:32:38.219Z,34.30
2019-03-23T16:35:04.916Z,34.10
2019-03-23T16:37:31.713Z,34.00
2019-03-23T16:39:58.533Z,34.00
2019-03-23T16:42:25.363Z,33.90
2019-03-23T16:44:52.517Z,33.90
2019-03-23T16:47:19.214Z,33.80
2019-03-23T16:49:46.002Z,33.80
2019-03-23T16:52:12.846Z,33.70
2019-03-23T16:54:39.676Z,33.60
2019-03-23T16:57:06.516Z,33.50
2019-03-23T16:59:33.378Z,33.40
2019-03-23T17:02:00.301Z,33.30
2019-03-23T17:04:27.032Z,33.10
2019-03-23T17:06:53.882Z,33.00
2019-03-23T17:09:20.726Z,32.90
2019-03-23T17:11:47.583Z,32.80
2019-03-23T17:14:14.431Z,32.80
2019-03-23T17:16:41.273Z,32.70
2019-03-23T17:19:08.095Z,32.60
2019-03-23T17:21:34.953Z,32.60
2019-03-23T17:24:01.764Z,32.50
2019-03-23T17:26:28.507Z,32.40
2019-03-23T17:28:55.262Z,32.30
2019-03-23T17:31:22.006Z,32.20
2019-03-23T17:33:48.728Z,32.20
2019-03-23T17:36:15.579Z,32.00
2019-03-23T17:38:42.301Z,32.00
2019-03-23T17:41:10.377Z,31.90
2019-03-23T17:43:37.433Z,31.80
2019-03-23T17:46:04.170Z,31.70
2019-03-23T17:48:31.011Z,31.60
2019-03-23T17:50:57.854Z,31.50
2019-03-23T17:53:24.697Z,31.40
2019-03-23T17:55:51.435Z,31.40
2019-03-23T17:58:18.283Z,31.30
2019-03-23T18:00:45.115Z,31.20
2019-03-23T18:03:11.874Z,31.10
2019-03-23T18:05:38.857Z,31.00
2019-03-23T18:08:05.752Z,30.90
2019-03-23T18:10:34.012Z,30.80
2019-03-23T18:13:01.082Z,30.80
2019-03-23T18:15:28.528Z,30.70
2019-03-23T18:17:55.295Z,30.60
2019-03-23T18:20:22.806Z,30.60
2019-03-23T18:22:49.573Z,30.40
2019-03-23T18:25:16.805Z,30.30
2019-03-23T18:27:43.868Z,30.30
2019-03-23T18:30:10.697Z,30.20
2019-03-23T18:32:37.553Z,30.20
2019-03-23T18:35:04.694Z,30.20
2019-03-23T18:37:31.397Z,30.10
2019-03-23T18:39:58.185Z,30.10
2019-03-23T18:42:24.907Z,30.00
2019-03-23T18:44:52.182Z,29.90
2019-03-23T18:47:18.942Z,29.90
2019-03-23T18:49:46.188Z,29.90
2019-03-23T18:52:12.945Z,29.70
2019-03-23T18:54:40.628Z,29.70
2019-03-23T18:57:08.574Z,29.50
2019-03-23T18:59:37.397Z,29.50
2019-03-23T19:02:05.669Z,29.40
2019-03-23T19:04:33.721Z,29.30
2019-03-23T19:07:02.001Z,29.30
2019-03-23T19:09:30.354Z,29.10
2019-03-23T19:11:57.341Z,29.10
2019-03-23T19:14:25.336Z,29.10
2019-03-23T19:16:52.288Z,29.00
2019-03-23T19:19:20.257Z,29.00
2019-03-23T19:21:47.151Z,29.00
2019-03-23T19:24:14.896Z,28.90
2019-03-23T19:26:43.988Z,28.90
2019-03-23T19:29:12.524Z,28.80
2019-03-23T19:31:39.499Z,28.80
2019-03-23T19:34:06.251Z,28.70
2019-03-23T19:36:32.996Z,28.70
2019-03-23T19:38:59.736Z,28.70
2019-03-23T19:41:26.559Z,28.60
2019-03-23T19:43:53.305Z,28.60
2019-03-23T19:46:20.010Z,28.50
2019-03-23T19:48:46.827Z,28.50
2019-03-23T19:51:13.550Z,28.50
2019-03-23T19:53:40.813Z,28.50
2019-03-23T19:56:08.320Z,28.40
2019-03-23T19:58:35.158Z,28.40
2019-03-23T20:01:02.418Z,28.30
2019-03-23T20:03:29.390Z,28.30
2019-03-23T20:05:56.305Z,28.20
2019-03-23T20:08:25.462Z,28.10
2019-03-23T20:10:51.587Z,28.10
2019-03-23T20:13:18.414Z,28.00
2019-03-23T20:15:45.550Z,28.00
2019-03-23T20:18:12.348Z,28.00
2019-03-23T20:20:39.230Z,27.90
2019-03-23T20:23:06.255Z,27.90
2019-03-23T20:25:33.134Z,27.90
2019-03-23T20:27:59.913Z,27.80
2019-03-23T20:30:27.650Z,27.80
2019-03-23T20:32:54.857Z,27.80
2019-03-23T20:35:21.965Z,27.80
2019-03-23T20:37:48.640Z,27.70
2019-03-23T20:40:15.720Z,27.70
2019-03-23T20:42:43.843Z,27.60
2019-03-23T20:45:11.367Z,27.60
2019-03-23T20:47:38.623Z,27.60
2019-03-23T20:50:05.570Z,27.50
2019-03-23T20:52:32.773Z,27.50
2019-03-23T20:54:59.572Z,27.50
2019-03-23T20:57:36.638Z,27.50
2019-03-23T20:59:55.124Z,27.40
2019-03-23T21:02:23.261Z,27.40
2019-03-23T21:04:50.790Z,27.40
2019-03-23T21:07:19.297Z,27.40
2019-03-23T21:09:47.722Z,27.30
2019-03-23T21:12:15.841Z,27.30
2019-03-23T21:14:43.464Z,27.30
2019-03-23T21:17:10.408Z,27.20
2019-03-23T21:19:38.307Z,27.20
2019-03-23T21:22:05.892Z,27.20
2019-03-23T21:24:34.436Z,27.20
2019-03-23T21:27:01.308Z,27.10
2019-03-23T21:29:28.470Z,27.10
2019-03-23T21:31:55.195Z,27.10
2019-03-23T21:34:21.969Z,27.10
2019-03-23T21:36:48.750Z,27.10
2019-03-23T21:39:15.498Z,27.00
2019-03-23T21:41:42.129Z,27.00
2019-03-23T21:44:08.877Z,26.90
2019-03-23T21:46:35.994Z,26.90
2019-03-23T21:49:02.960Z,26.90
2019-03-23T21:51:29.690Z,26.80
2019-03-23T21:53:56.456Z,26.80
2019-03-23T21:56:23.148Z,26.80
2019-03-23T21:58:49.826Z,26.80
2019-03-23T22:01:17.308Z,26.80
2019-03-23T22:03:44.322Z,26.70
2019-03-23T22:06:11.053Z,26.70
2019-03-23T22:08:38.096Z,26.70
2019-03-23T22:11:05.074Z,26.60
2019-03-23T22:13:31.792Z,26.60
2019-03-23T22:15:58.634Z,26.60
2019-03-23T22:18:25.469Z,26.60
2019-03-23T22:20:52.319Z,26.60
2019-03-23T22:23:19.520Z,26.60
2019-03-23T22:25:46.314Z,26.60
2019-03-23T22:28:13.238Z,26.60
2019-03-23T22:30:40.002Z,26.50
2019-03-23T22:33:06.725Z,26.50
2019-03-23T22:35:33.440Z,26.50
2019-03-23T22:38:00.224Z,26.40
2019-03-23T22:40:28.225Z,26.50
2019-03-23T22:42:55.069Z,26.40
2019-03-23T22:45:21.861Z,26.40
2019-03-23T22:47:48.597Z,26.40
2019-03-23T22:50:15.348Z,26.30
2019-03-23T22:52:42.093Z,26.30
2019-03-23T22:55:08.827Z,26.30
2019-03-23T22:57:35.566Z,26.30
2019-03-23T23:00:02.343Z,26.30
2019-03-23T23:02:29.062Z,26.20
2019-03-23T23:04:55.823Z,26.20
2019-03-23T23:07:22.589Z,26.20
2019-03-23T23:09:49.281Z,26.20
2019-03-23T23:12:16.052Z,26.20
2019-03-23T23:14:42.819Z,26.20
2019-03-23T23:17:09.519Z,26.20
2019-03-23T23:19:36.241Z,26.20
2019-03-23T23:22:02.997Z,26.10
2019-03-23T23:24:29.630Z,26.20
2019-03-23T23:26:56.261Z,26.20
2019-03-23T23:29:23.061Z,26.20
2019-03-23T23:31:49.752Z,26.30
2019-03-23T23:34:16.412Z,26.30
2019-03-23T23:36:43.197Z,26.40
2019-03-23T23:39:09.891Z,26.50
2019-03-23T23:41:36.620Z,26.50
2019-03-23T23:44:03.367Z,26.60
2019-03-23T23:46:30.021Z,26.60
2019-03-23T23:48:56.717Z,26.60
2019-03-23T23:51:23.470Z,26.60
2019-03-23T23:53:50.218Z,26.70
2019-03-23T23:56:16.892Z,26.70
2019-03-23T23:58:43.571Z,26.70
